createdAt,value
2022-07-26T00:00:58.405Z,25.00
2022-07-26T00:03:25.094Z,25.00
2022-07-26T00:05:51.851Z,24.90
2022-07-26T00:08:18.465Z,24.90
2022-07-26T00:10:49.218Z,24.80
2022-07-26T00:13:17.439Z,24.80
2022-07-26T00:15:44.835Z,24.80
2022-07-26T00:18:12.373Z,24.70
2022-07-26T00:20:39.468Z,24.50
2022-07-26T00:23:06.273Z,24.30
2022-07-26T00:25:33.028Z,24.10
2022-07-26T00:27:59.680Z,24.00
2022-07-26T00:30:26.771Z,23.90
2022-07-26T00:32:53.380Z,23.80
2022-07-26T00:35:20.735Z,23.80
2022-07-26T00:37:47.838Z,23.70
2022-07-26T00:40:15.519Z,23.60
2022-07-26T00:42:42.737Z,23.50
2022-07-26T00:45:10.809Z,23.50
2022-07-26T00:47:37.741Z,23.50
2022-07-26T00:50:07.603Z,23.40
2022-07-26T00:52:34.420Z,23.40
2022-07-26T00:55:01.382Z,23.50
2022-07-26T00:57:28.918Z,23.40
2022-07-26T00:59:57.106Z,23.40
2022-07-26T01:02:23.755Z,23.40
2022-07-26T01:04:50.463Z,23.40
2022-07-26T01:07:17.415Z,23.30
2022-07-26T01:09:45.124Z,23.30
2022-07-26T01:12:12.808Z,23.20
2022-07-26T01:14:43.204Z,23.20
2022-07-26T01:17:10.170Z,23.10
2022-07-26T01:19:36.910Z,23.10
2022-07-26T01:22:03.770Z,23.10
2022-07-26T01:24:30.646Z,23.10
2022-07-26T01:26:57.327Z,23.10
2022-07-26T01:29:24.956Z,23.00
2022-07-26T01:32:04.062Z,23.00
2022-07-26T01:34:30.842Z,22.90
2022-07-26T01:36:57.481Z,23.00
2022-07-26T01:39:24.363Z,23.00
2022-07-26T01:41:50.950Z,23.00
2022-07-26T01:44:17.536Z,22.90
2022-07-26T01:46:44.155Z,22.90
2022-07-26T01:49:10.871Z,22.90
2022-07-26T01:51:37.528Z,23.00
2022-07-26T01:54:04.606Z,23.00
2022-07-26T01:56:31.510Z,23.00
2022-07-26T01:58:58.308Z,22.90
2022-07-26T02:01:38.929Z,22.90
2022-07-26T02:04:08.130Z,22.80
2022-07-26T02:06:35.193Z,22.90
2022-07-26T02:09:02.062Z,22.90
2022-07-26T02:11:29.048Z,22.80
2022-07-26T02:13:55.741Z,22.80
2022-07-26T02:16:22.675Z,22.80
2022-07-26T02:18:49.412Z,22.70
2022-07-26T02:21:16.031Z,22.70
2022-07-26T02:23:43.353Z,22.80
2022-07-26T02:26:10.055Z,22.80
2022-07-26T02:28:36.711Z,22.80
2022-07-26T02:31:03.444Z,22.80
2022-07-26T02:33:30.131Z,22.80
2022-07-26T02:35:56.795Z,22.70
2022-07-26T02:38:25.137Z,22.70
2022-07-26T02:40:52.687Z,22.70
2022-07-26T02:43:19.760Z,22.70
2022-07-26T02:46:00.999Z,22.70
2022-07-26T02:48:30.026Z,22.70
2022-07-26T02:50:56.658Z,22.70
2022-07-26T02:53:23.264Z,22.70
2022-07-26T02:55:49.911Z,22.70
2022-07-26T02:58:16.496Z,22.70
2022-07-26T03:00:43.455Z,22.80
2022-07-26T03:03:13.852Z,22.80
2022-07-26T03:05:40.699Z,22.80
2022-07-26T03:08:07.889Z,22.80
2022-07-26T03:10:34.502Z,22.80
2022-07-26T03:13:01.212Z,22.80
2022-07-26T03:15:27.924Z,22.80
2022-07-26T03:17:55.294Z,22.70
2022-07-26T03:20:22.012Z,22.70
2022-07-26T03:22:48.652Z,22.80
2022-07-26T03:25:15.277Z,22.70
2022-07-26T03:27:41.915Z,22.70
2022-07-26T03:30:09.763Z,22.80
2022-07-26T03:32:36.397Z,22.80
2022-07-26T03:35:03.563Z,22.70
2022-07-26T03:37:44.832Z,22.70
2022-07-26T03:40:15.267Z,22.70
2022-07-26T03:42:42.130Z,22.70
2022-07-26T03:45:09.302Z,22.70
2022-07-26T03:47:37.134Z,22.70
2022-07-26T03:50:07.345Z,22.60
2022-07-26T03:52:34.907Z,22.60
2022-07-26T03:55:21.497Z,22.60
2022-07-26T03:57:48.262Z,22.60
2022-07-26T04:00:15.061Z,22.60
2022-07-26T04:02:41.681Z,22.60
2022-07-26T04:05:08.843Z,22.60
2022-07-26T04:07:51.534Z,22.60
2022-07-26T04:10:21.776Z,22.50
2022-07-26T04:12:49.216Z,22.50
2022-07-26T04:15:17.073Z,22.40
2022-07-26T04:17:43.980Z,22.30
2022-07-26T04:20:12.474Z,22.30
2022-07-26T04:22:40.211Z,22.40
2022-07-26T04:25:08.165Z,22.30
2022-07-26T04:27:35.492Z,22.30
2022-07-26T04:30:02.144Z,22.30
2022-07-26T04:32:28.803Z,22.20
2022-07-26T04:34:55.447Z,22.10
2022-07-26T04:37:22.051Z,22.00
2022-07-26T04:39:54.480Z,22.00
2022-07-26T04:42:21.881Z,21.80
2022-07-26T04:44:48.501Z,21.80
2022-07-26T04:47:15.094Z,21.80
2022-07-26T04:49:41.731Z,21.70
2022-07-26T04:52:08.328Z,21.70
2022-07-26T04:54:34.975Z,21.60
2022-07-26T04:57:01.622Z,21.60
2022-07-26T04:59:28.282Z,21.50
2022-07-26T05:01:59.494Z,21.60
2022-07-26T05:04:26.376Z,21.60
2022-07-26T05:06:53.058Z,21.50
2022-07-26T05:09:19.765Z,21.50
2022-07-26T05:11:46.503Z,21.50
2022-07-26T05:14:13.117Z,21.50
2022-07-26T05:16:44.387Z,21.50
2022-07-26T05:19:11.942Z,21.40
2022-07-26T05:21:38.750Z,21.50
2022-07-26T05:24:07.675Z,21.40
2022-07-26T05:26:34.713Z,21.30
2022-07-26T05:29:01.325Z,21.40
2022-07-26T05:31:28.075Z,21.30
2022-07-26T05:33:55.354Z,21.20
2022-07-26T05:36:22.082Z,21.20
2022-07-26T05:38:48.804Z,21.20
2022-07-26T05:41:15.428Z,21.20
2022-07-26T05:43:42.319Z,21.00
2022-07-26T05:46:10.616Z,20.90
2022-07-26T05:48:38.203Z,20.90
2022-07-26T05:51:04.974Z,20.90
2022-07-26T05:53:31.961Z,20.80
2022-07-26T05:55:58.571Z,20.80
2022-07-26T05:58:25.241Z,20.90
2022-07-26T06:00:52.439Z,20.80
2022-07-26T06:03:22.167Z,20.80
2022-07-26T06:05:50.119Z,20.80
2022-07-26T06:08:17.611Z,20.80
2022-07-26T06:10:44.731Z,20.70
2022-07-26T06:13:11.950Z,20.70
2022-07-26T06:15:38.864Z,20.80
2022-07-26T06:18:06.289Z,20.70
2022-07-26T06:20:33.626Z,20.80
2022-07-26T06:23:00.897Z,20.80
2022-07-26T06:25:27.656Z,20.80
2022-07-26T06:27:54.279Z,20.80
2022-07-26T06:30:20.892Z,20.90
2022-07-26T06:32:47.626Z,20.90
2022-07-26T06:35:15.437Z,20.90
2022-07-26T06:37:43.081Z,20.90
2022-07-26T06:40:11.447Z,21.00
2022-07-26T06:42:38.862Z,21.00
2022-07-26T06:45:06.272Z,21.00
2022-07-26T06:47:33.017Z,21.10
2022-07-26T06:49:59.640Z,21.10
2022-07-26T06:52:26.253Z,21.10
2022-07-26T06:54:52.867Z,21.10
2022-07-26T06:57:19.502Z,21.10
2022-07-26T06:59:46.106Z,21.10
2022-07-26T07:02:12.775Z,21.10
2022-07-26T07:04:39.518Z,21.20
2022-07-26T07:07:06.517Z,21.30
2022-07-26T07:09:33.679Z,21.40
2022-07-26T07:12:09.546Z,21.40
2022-07-26T07:14:37.465Z,21.40
2022-07-26T07:17:04.127Z,21.50
2022-07-26T07:19:39.802Z,21.60
2022-07-26T07:22:11.494Z,21.70
2022-07-26T07:24:38.840Z,21.80
2022-07-26T07:27:05.633Z,21.90
2022-07-26T07:29:33.777Z,21.90
2022-07-26T07:32:00.755Z,21.90
2022-07-26T07:34:30.392Z,22.00
2022-07-26T07:36:57.550Z,22.00
2022-07-26T07:39:27.317Z,22.00
2022-07-26T07:42:05.181Z,22.00
2022-07-26T07:44:31.812Z,22.10
2022-07-26T07:46:58.480Z,22.10
2022-07-26T07:49:25.234Z,22.10
2022-07-26T07:51:51.957Z,22.10
2022-07-26T07:54:18.625Z,22.10
2022-07-26T07:56:48.946Z,22.10
2022-07-26T07:59:15.611Z,22.10
2022-07-26T08:01:42.357Z,22.10
2022-07-26T08:04:11.739Z,22.10
2022-07-26T08:06:38.379Z,22.10
2022-07-26T08:09:08.709Z,22.10
2022-07-26T08:11:36.104Z,22.10
2022-07-26T08:14:02.897Z,22.00
2022-07-26T08:16:30.743Z,22.10
2022-07-26T08:18:58.381Z,22.10
2022-07-26T08:21:26.349Z,22.10
2022-07-26T08:23:56.203Z,22.10
2022-07-26T08:26:22.803Z,22.10
2022-07-26T08:28:59.247Z,22.10
2022-07-26T08:31:27.564Z,22.20
2022-07-26T08:33:54.295Z,22.20
2022-07-26T08:36:20.932Z,22.10
2022-07-26T08:38:48.450Z,22.10
2022-07-26T08:41:16.985Z,22.20
2022-07-26T08:43:52.008Z,22.10
2022-07-26T08:46:26.897Z,22.10
2022-07-26T08:48:55.382Z,22.20
2022-07-26T08:51:24.610Z,22.20
2022-07-26T08:53:59.075Z,22.20
2022-07-26T08:56:30.550Z,22.30
2022-07-26T08:58:57.291Z,22.30
2022-07-26T09:01:24.012Z,22.30
2022-07-26T09:03:50.851Z,22.30
2022-07-26T09:06:20.525Z,22.30
2022-07-26T09:08:52.470Z,22.30
2022-07-26T09:11:24.999Z,22.30
2022-07-26T09:13:53.507Z,22.40
2022-07-26T09:16:20.896Z,22.50
2022-07-26T09:18:47.741Z,22.60
2022-07-26T09:21:32.382Z,22.60
2022-07-26T09:23:59.904Z,22.60
2022-07-26T09:26:28.078Z,22.60
2022-07-26T09:29:11.762Z,22.70
2022-07-26T09:31:39.606Z,22.80
2022-07-26T09:34:07.421Z,22.80
2022-07-26T09:36:50.729Z,22.80
2022-07-26T09:39:17.423Z,22.80
2022-07-26T09:42:04.755Z,22.90
2022-07-26T09:44:47.938Z,22.90
2022-07-26T09:47:14.981Z,23.00
2022-07-26T09:49:42.586Z,23.00
2022-07-26T09:52:18.625Z,23.00
2022-07-26T09:54:46.836Z,22.90
2022-07-26T09:57:18.898Z,23.00
2022-07-26T09:59:46.571Z,23.00
2022-07-26T10:02:14.298Z,23.10
2022-07-26T10:04:42.388Z,23.20
2022-07-26T10:07:10.478Z,23.20
2022-07-26T10:09:50.358Z,23.40
2022-07-26T10:12:17.519Z,23.50
2022-07-26T10:14:46.257Z,23.60
2022-07-26T10:17:34.945Z,23.70
2022-07-26T10:20:10.695Z,23.70
2022-07-26T10:22:46.533Z,23.70
2022-07-26T10:25:33.515Z,23.50
2022-07-26T10:28:00.281Z,23.50
2022-07-26T10:30:34.263Z,23.60
2022-07-26T10:33:03.557Z,23.70
2022-07-26T10:35:43.393Z,23.70
2022-07-26T10:38:25.841Z,23.80
2022-07-26T10:41:04.111Z,23.80
2022-07-26T10:43:40.746Z,23.80
2022-07-26T10:46:24.827Z,23.80
2022-07-26T10:49:08.898Z,23.70
2022-07-26T10:51:40.521Z,23.80
2022-07-26T10:54:10.033Z,23.80
2022-07-26T10:56:37.557Z,23.80
2022-07-26T10:59:05.456Z,23.80
2022-07-26T11:01:37.429Z,23.80
2022-07-26T11:04:05.469Z,23.90
2022-07-26T11:06:32.862Z,24.00
2022-07-26T11:09:10.263Z,24.00
2022-07-26T11:11:36.940Z,24.20
2022-07-26T11:14:11.427Z,24.40
2022-07-26T11:16:52.730Z,24.50
2022-07-26T11:19:25.901Z,24.60
2022-07-26T11:21:58.817Z,24.70
2022-07-26T11:24:26.744Z,24.80
2022-07-26T11:26:54.124Z,25.00
2022-07-26T11:29:38.985Z,25.00
2022-07-26T11:32:20.555Z,24.80
2022-07-26T11:35:01.932Z,24.90
2022-07-26T11:37:29.759Z,25.00
2022-07-26T11:39:56.587Z,25.20
2022-07-26T11:42:23.317Z,25.30
2022-07-26T11:44:50.678Z,25.50
2022-07-26T11:47:20.497Z,25.50
2022-07-26T11:50:00.538Z,25.60
2022-07-26T11:52:34.713Z,25.70
2022-07-26T11:55:01.378Z,25.80
2022-07-26T11:57:30.156Z,25.90
2022-07-26T11:59:58.311Z,25.70
2022-07-26T12:02:25.881Z,25.60
2022-07-26T12:05:20.445Z,25.50
2022-07-26T12:08:07.317Z,25.40
2022-07-26T12:10:34.426Z,25.50
2022-07-26T12:13:14.556Z,25.50
2022-07-26T12:15:49.738Z,25.50
2022-07-26T12:18:24.465Z,25.50
2022-07-26T12:21:08.966Z,25.30
2022-07-26T12:23:48.502Z,25.40
2022-07-26T12:26:27.342Z,25.20
2022-07-26T12:28:55.506Z,25.20
2022-07-26T12:31:23.389Z,25.30
2022-07-26T12:33:50.524Z,25.40
2022-07-26T12:36:26.948Z,25.40
2022-07-26T12:38:59.401Z,25.60
2022-07-26T12:41:32.694Z,25.60
2022-07-26T12:43:59.925Z,25.50
2022-07-26T12:46:26.632Z,25.50
2022-07-26T12:48:58.123Z,25.70
2022-07-26T12:51:27.257Z,25.70
2022-07-26T12:53:54.103Z,25.80
2022-07-26T12:56:20.707Z,25.90
2022-07-26T12:58:47.329Z,25.90
2022-07-26T13:01:14.116Z,26.00
2022-07-26T13:03:40.849Z,25.90
2022-07-26T13:06:07.932Z,26.00
2022-07-26T13:08:34.582Z,25.90
2022-07-26T13:11:01.269Z,25.90
2022-07-26T13:13:27.957Z,26.10
2022-07-26T13:15:54.565Z,26.10
2022-07-26T13:18:21.176Z,26.00
2022-07-26T13:20:47.852Z,26.10
2022-07-26T13:23:15.792Z,26.00
2022-07-26T13:25:47.051Z,26.00
2022-07-26T13:28:15.602Z,26.00
2022-07-26T13:30:43.730Z,26.10
2022-07-26T13:33:11.035Z,26.00
2022-07-26T13:35:39.415Z,26.10
2022-07-26T13:38:08.314Z,26.20
2022-07-26T13:40:34.991Z,26.20
2022-07-26T13:43:01.749Z,26.30
2022-07-26T13:45:29.142Z,26.30
2022-07-26T13:47:57.612Z,26.50
2022-07-26T13:50:26.860Z,26.60
2022-07-26T13:52:55.279Z,26.70
2022-07-26T13:55:22.543Z,26.70
2022-07-26T13:57:56.635Z,26.80
2022-07-26T14:00:28.860Z,26.90
2022-07-26T14:02:57.961Z,26.90
2022-07-26T14:05:25.691Z,26.80
2022-07-26T14:07:53.103Z,26.80
2022-07-26T14:10:20.439Z,26.80
2022-07-26T14:12:47.937Z,26.80
2022-07-26T14:15:21.142Z,26.90
2022-07-26T14:17:48.783Z,26.90
2022-07-26T14:20:17.313Z,26.90
2022-07-26T14:22:44.716Z,26.90
2022-07-26T14:25:11.795Z,26.80
2022-07-26T14:27:38.556Z,26.80
2022-07-26T14:30:05.757Z,26.80
2022-07-26T14:32:32.444Z,26.70
2022-07-26T14:34:59.190Z,26.80
2022-07-26T14:37:42.678Z,26.90
2022-07-26T14:40:14.112Z,26.90
2022-07-26T14:42:40.822Z,26.80
2022-07-26T14:45:09.423Z,26.80
2022-07-26T14:47:36.272Z,26.90
2022-07-26T14:50:06.822Z,26.80
2022-07-26T14:52:34.313Z,26.90
2022-07-26T14:55:00.904Z,26.90
2022-07-26T14:57:27.564Z,26.80
2022-07-26T14:59:54.177Z,26.80
2022-07-26T15:02:20.950Z,26.70
2022-07-26T15:04:47.658Z,26.60
2022-07-26T15:07:14.407Z,26.60
2022-07-26T15:09:41.267Z,26.60
2022-07-26T15:12:08.090Z,26.50
2022-07-26T15:14:35.834Z,26.50
2022-07-26T15:17:02.580Z,26.60
2022-07-26T15:19:29.304Z,26.70
2022-07-26T15:21:55.942Z,26.70
2022-07-26T15:24:23.658Z,26.70
2022-07-26T15:26:51.161Z,26.70
2022-07-26T15:29:17.789Z,26.70
2022-07-26T15:31:44.677Z,26.70
2022-07-26T15:34:11.854Z,26.60
2022-07-26T15:36:38.789Z,26.60
2022-07-26T15:39:16.674Z,26.60
2022-07-26T15:41:44.728Z,26.60
2022-07-26T15:44:12.515Z,26.60
2022-07-26T15:46:40.010Z,26.60
2022-07-26T15:49:07.826Z,26.60
2022-07-26T15:51:34.577Z,26.50
2022-07-26T15:54:03.099Z,26.50
2022-07-26T15:56:29.940Z,26.50
2022-07-26T15:58:56.613Z,26.40
2022-07-26T16:01:23.423Z,26.50
2022-07-26T16:03:50.244Z,26.40
2022-07-26T16:06:16.904Z,26.50
2022-07-26T16:09:05.921Z,26.40
2022-07-26T16:11:31.088Z,26.40
2022-07-26T16:14:01.642Z,26.30
2022-07-26T16:16:30.251Z,26.30
2022-07-26T16:18:57.339Z,26.30
2022-07-26T16:21:24.559Z,26.30
2022-07-26T16:23:51.402Z,26.30
2022-07-26T16:26:18.711Z,26.30
2022-07-26T16:28:45.462Z,26.30
2022-07-26T16:31:12.523Z,26.30
2022-07-26T16:33:46.184Z,26.20
2022-07-26T16:36:13.962Z,26.20
2022-07-26T16:38:40.764Z,26.20
2022-07-26T16:41:07.436Z,26.10
2022-07-26T16:43:34.601Z,26.10
2022-07-26T16:46:01.425Z,26.10
2022-07-26T16:48:28.206Z,26.10
2022-07-26T16:50:55.007Z,26.10
2022-07-26T16:53:21.712Z,26.10
2022-07-26T16:55:51.263Z,26.20
2022-07-26T16:58:18.796Z,26.20
2022-07-26T17:00:46.605Z,26.00
2022-07-26T17:03:15.776Z,25.80
2022-07-26T17:05:45.695Z,25.70
2022-07-26T17:08:12.419Z,25.70
2022-07-26T17:10:39.107Z,25.70
2022-07-26T17:13:05.804Z,25.60
2022-07-26T17:15:32.547Z,25.60
2022-07-26T17:17:59.360Z,25.50
2022-07-26T17:20:26.188Z,25.50
2022-07-26T17:22:53.553Z,25.40
2022-07-26T17:25:20.493Z,25.40
2022-07-26T17:27:47.248Z,25.30
2022-07-26T17:30:14.236Z,25.30
2022-07-26T17:32:41.021Z,25.20
2022-07-26T17:35:08.188Z,25.20
2022-07-26T17:37:35.122Z,25.00
2022-07-26T17:40:03.564Z,25.00
2022-07-26T17:42:30.535Z,25.00
2022-07-26T17:44:57.425Z,24.90
2022-07-26T17:47:29.089Z,24.90
2022-07-26T17:50:26.420Z,24.90
2022-07-26T17:52:48.008Z,24.90
2022-07-26T17:55:14.851Z,24.80
2022-07-26T17:57:42.290Z,24.70
2022-07-26T18:00:09.578Z,24.70
2022-07-26T18:02:36.385Z,24.70
2022-07-26T18:05:03.556Z,24.70
2022-07-26T18:07:30.346Z,24.70
2022-07-26T18:09:57.058Z,24.60
2022-07-26T18:12:23.820Z,24.60
2022-07-26T18:14:50.458Z,24.60
2022-07-26T18:17:17.076Z,24.60
2022-07-26T18:19:43.873Z,24.50
2022-07-26T18:22:10.482Z,24.50
2022-07-26T18:24:37.098Z,24.50
2022-07-26T18:27:03.836Z,24.40
2022-07-26T18:29:30.601Z,24.40
2022-07-26T18:32:01.978Z,24.40
2022-07-26T18:34:28.819Z,24.40
2022-07-26T18:36:55.495Z,24.40
2022-07-26T18:39:22.179Z,24.50
2022-07-26T18:41:48.829Z,24.50
2022-07-26T18:44:15.450Z,24.50
2022-07-26T18:46:42.183Z,24.50
2022-07-26T18:49:15.805Z,24.50
2022-07-26T18:51:48.714Z,24.60
2022-07-26T18:54:16.143Z,24.60
2022-07-26T18:56:42.997Z,24.60
2022-07-26T18:59:09.989Z,24.50
2022-07-26T19:01:36.995Z,24.50
2022-07-26T19:04:07.148Z,24.50
2022-07-26T19:06:34.932Z,24.40
2022-07-26T19:09:01.621Z,24.50
2022-07-26T19:11:29.587Z,24.50
2022-07-26T19:13:56.349Z,24.40
2022-07-26T19:16:23.006Z,24.40
2022-07-26T19:18:53.828Z,24.30
2022-07-26T19:21:24.170Z,24.30
2022-07-26T19:23:50.879Z,24.30
2022-07-26T19:26:17.513Z,24.30
2022-07-26T19:28:44.358Z,24.30
2022-07-26T19:31:11.144Z,24.30
2022-07-26T19:33:38.018Z,24.30
2022-07-26T19:36:04.883Z,24.30
2022-07-26T19:38:32.830Z,24.30
2022-07-26T19:40:59.985Z,24.30
2022-07-26T19:43:26.782Z,24.30
2022-07-26T19:45:53.513Z,24.20
2022-07-26T19:48:20.286Z,24.20
2022-07-26T19:50:47.002Z,24.20
2022-07-26T19:53:13.716Z,24.20
2022-07-26T19:55:41.649Z,24.20
2022-07-26T19:58:08.300Z,24.10
2022-07-26T20:00:35.139Z,24.10
2022-07-26T20:03:01.947Z,24.00
2022-07-26T20:05:28.644Z,23.90
2022-07-26T20:07:55.282Z,23.90
2022-07-26T20:10:23.006Z,23.80
2022-07-26T20:12:50.075Z,23.80
2022-07-26T20:15:16.936Z,23.80
2022-07-26T20:17:43.644Z,23.70
2022-07-26T20:20:10.657Z,23.70
2022-07-26T20:22:38.230Z,23.70
2022-07-26T20:25:05.978Z,23.60
2022-07-26T20:27:32.849Z,23.60
2022-07-26T20:30:01.348Z,23.50
2022-07-26T20:32:28.188Z,23.50
2022-07-26T20:34:54.945Z,23.50
2022-07-26T20:37:21.568Z,23.40
2022-07-26T20:39:50.845Z,23.30
2022-07-26T20:42:21.598Z,23.10
2022-07-26T20:44:48.731Z,23.10
2022-07-26T20:47:15.419Z,23.10
2022-07-26T20:49:42.019Z,23.00
2022-07-26T20:52:08.641Z,23.00
2022-07-26T20:54:35.484Z,22.90
2022-07-26T20:57:04.184Z,22.90
2022-07-26T20:59:32.221Z,22.90
2022-07-26T21:01:58.915Z,22.90
2022-07-26T21:04:25.724Z,22.90
2022-07-26T21:06:52.425Z,22.80
2022-07-26T21:09:19.724Z,22.80
2022-07-26T21:11:46.722Z,22.80
2022-07-26T21:14:13.346Z,22.80
2022-07-26T21:19:07.264Z,22.70
2022-07-26T21:21:36.292Z,22.70
2022-07-26T21:24:02.982Z,22.70
2022-07-26T21:26:29.785Z,22.60
2022-07-26T21:28:56.564Z,22.60
2022-07-26T21:31:23.189Z,22.60
2022-07-26T21:33:49.929Z,22.50
2022-07-26T21:36:16.565Z,22.40
2022-07-26T21:38:43.350Z,22.40
2022-07-26T21:41:13.664Z,22.40
2022-07-26T21:43:40.580Z,22.40
2022-07-26T21:46:12.219Z,22.30
2022-07-26T21:48:40.040Z,22.30
2022-07-26T21:51:07.302Z,22.20
2022-07-26T21:53:33.995Z,22.00
2022-07-26T21:56:00.644Z,21.80
2022-07-26T21:58:28.140Z,21.70
2022-07-26T22:01:03.256Z,21.60
2022-07-26T22:03:35.452Z,21.50
2022-07-26T22:06:02.367Z,21.60
2022-07-26T22:08:29.028Z,21.60
2022-07-26T22:10:56.581Z,21.60
2022-07-26T22:13:23.407Z,21.50
2022-07-26T22:15:50.310Z,21.60
2022-07-26T22:18:19.655Z,21.50
2022-07-26T22:20:50.233Z,21.50
2022-07-26T22:23:18.613Z,21.50
2022-07-26T22:25:45.996Z,21.50
2022-07-26T22:28:18.123Z,21.50
2022-07-26T22:30:45.901Z,21.30
2022-07-26T22:33:12.775Z,21.20
2022-07-26T22:35:39.689Z,21.00
2022-07-26T22:38:10.316Z,20.90
2022-07-26T22:40:38.388Z,20.80
2022-07-26T22:43:05.737Z,20.60
2022-07-26T22:45:33.633Z,20.70
2022-07-26T22:48:02.362Z,20.50
2022-07-26T22:50:29.287Z,20.60
2022-07-26T22:52:55.952Z,20.60
2022-07-26T22:55:23.103Z,20.60
2022-07-26T22:57:50.376Z,20.60
2022-07-26T23:00:18.759Z,20.70
2022-07-26T23:02:45.802Z,20.70
2022-07-26T23:05:14.679Z,20.70
2022-07-26T23:07:41.684Z,20.80
2022-07-26T23:10:13.892Z,20.70
2022-07-26T23:12:40.657Z,20.70
2022-07-26T23:15:09.930Z,20.60
2022-07-26T23:17:37.626Z,20.60
2022-07-26T23:20:05.673Z,20.70
2022-07-26T23:22:32.306Z,20.60
2022-07-26T23:24:58.941Z,20.70
2022-07-26T23:27:25.697Z,20.70
2022-07-26T23:29:52.407Z,20.70
2022-07-26T23:32:19.042Z,20.70
2022-07-26T23:34:45.644Z,20.70
2022-07-26T23:37:12.319Z,20.70
2022-07-26T23:39:38.967Z,20.60
2022-07-26T23:42:07.077Z,20.60
2022-07-26T23:44:34.115Z,20.60
2022-07-26T23:47:00.975Z,20.60
2022-07-26T23:49:27.764Z,20.60
2022-07-26T23:51:54.616Z,20.50
2022-07-26T23:54:21.385Z,20.50
2022-07-26T23:56:48.049Z,20.50
2022-07-26T23:59:15.227Z,20.40
